sensor_id;sensor_type;location;lat;lon;timestamp;temperature;humidity
33827;DHT22;20128;45.582;5.298;2024-01-30T00:01:42;11.00;89.80
33827;DHT22;20128;45.582;5.298;2024-01-30T00:04:08;11.00;89.60
33827;DHT22;20128;45.582;5.298;2024-01-30T00:06:34;11.00;89.60
33827;DHT22;20128;45.582;5.298;2024-01-30T00:08:59;10.90;89.30
33827;DHT22;20128;45.582;5.298;2024-01-30T00:11:25;10.90;89.70
33827;DHT22;20128;45.582;5.298;2024-01-30T00:13:54;10.80;89.50
33827;DHT22;20128;45.582;5.298;2024-01-30T00:16:22;10.90;89.50
33827;DHT22;20128;45.582;5.298;2024-01-30T00:18:50;10.80;89.30
33827;DHT22;20128;45.582;5.298;2024-01-30T00:21:16;10.80;89.20
33827;DHT22;20128;45.582;5.298;2024-01-30T00:23:41;10.80;89.30
33827;DHT22;20128;45.582;5.298;2024-01-30T00:26:07;10.70;89.70
33827;DHT22;20128;45.582;5.298;2024-01-30T00:28:32;10.70;90.10
33827;DHT22;20128;45.582;5.298;2024-01-30T00:30:58;10.70;90.40
33827;DHT22;20128;45.582;5.298;2024-01-30T00:33:24;10.70;90.30
33827;DHT22;20128;45.582;5.298;2024-01-30T00:35:49;10.70;90.50
33827;DHT22;20128;45.582;5.298;2024-01-30T00:38:15;10.70;90.40
33827;DHT22;20128;45.582;5.298;2024-01-30T00:40:41;10.80;90.40
33827;DHT22;20128;45.582;5.298;2024-01-30T00:43:06;10.80;90.30
33827;DHT22;20128;45.582;5.298;2024-01-30T00:45:32;10.70;90.30
33827;DHT22;20128;45.582;5.298;2024-01-30T00:47:58;10.70;90.70
33827;DHT22;20128;45.582;5.298;2024-01-30T00:50:23;10.70;90.70
33827;DHT22;20128;45.582;5.298;2024-01-30T00:52:49;10.70;90.90
33827;DHT22;20128;45.582;5.298;2024-01-30T00:55:14;10.70;91.10
33827;DHT22;20128;45.582;5.298;2024-01-30T00:57:40;10.70;91.30
33827;DHT22;20128;45.582;5.298;2024-01-30T01:00:07;10.70;91.40
33827;DHT22;20128;45.582;5.298;2024-01-30T01:02:34;10.70;91.50
33827;DHT22;20128;45.582;5.298;2024-01-30T01:05:01;10.80;91.50
33827;DHT22;20128;45.582;5.298;2024-01-30T01:07:26;10.80;91.50
33827;DHT22;20128;45.582;5.298;2024-01-30T01:09:52;10.80;91.50
33827;DHT22;20128;45.582;5.298;2024-01-30T01:12:18;10.80;91.40
33827;DHT22;20128;45.582;5.298;2024-01-30T01:14:43;10.80;91.70
33827;DHT22;20128;45.582;5.298;2024-01-30T01:17:09;10.80;91.80
33827;DHT22;20128;45.582;5.298;2024-01-30T01:19:34;10.80;91.90
33827;DHT22;20128;45.582;5.298;2024-01-30T01:22:00;10.80;92.00
33827;DHT22;20128;45.582;5.298;2024-01-30T01:24:26;10.80;92.10
33827;DHT22;20128;45.582;5.298;2024-01-30T01:26:51;10.90;92.30
33827;DHT22;20128;45.582;5.298;2024-01-30T01:29:17;10.80;92.20
33827;DHT22;20128;45.582;5.298;2024-01-30T01:31:43;10.90;92.20
33827;DHT22;20128;45.582;5.298;2024-01-30T01:34:10;10.80;92.20
33827;DHT22;20128;45.582;5.298;2024-01-30T01:36:36;10.80;92.30
33827;DHT22;20128;45.582;5.298;2024-01-30T01:39:01;10.80;92.40
33827;DHT22;20128;45.582;5.298;2024-01-30T01:41:34;10.90;92.60
33827;DHT22;20128;45.582;5.298;2024-01-30T01:44:00;10.90;92.60
33827;DHT22;20128;45.582;5.298;2024-01-30T01:46:27;10.90;92.60
33827;DHT22;20128;45.582;5.298;2024-01-30T01:48:54;10.90;92.90
33827;DHT22;20128;45.582;5.298;2024-01-30T01:51:20;10.90;93.00
33827;DHT22;20128;45.582;5.298;2024-01-30T01:53:47;10.80;93.00
33827;DHT22;20128;45.582;5.298;2024-01-30T01:56:13;10.80;93.10
33827;DHT22;20128;45.582;5.298;2024-01-30T01:58:38;10.90;93.00
33827;DHT22;20128;45.582;5.298;2024-01-30T02:01:04;10.90;93.00
33827;DHT22;20128;45.582;5.298;2024-01-30T02:03:30;10.90;93.00
33827;DHT22;20128;45.582;5.298;2024-01-30T02:05:56;10.80;92.90
33827;DHT22;20128;45.582;5.298;2024-01-30T02:08:23;10.80;92.90
33827;DHT22;20128;45.582;5.298;2024-01-30T02:10:49;10.80;93.00
33827;DHT22;20128;45.582;5.298;2024-01-30T02:13:15;10.80;93.00
33827;DHT22;20128;45.582;5.298;2024-01-30T02:15:41;10.90;93.00
33827;DHT22;20128;45.582;5.298;2024-01-30T02:18:06;10.90;93.00
33827;DHT22;20128;45.582;5.298;2024-01-30T02:20:35;10.90;93.10
33827;DHT22;20128;45.582;5.298;2024-01-30T02:23:01;10.80;93.30
33827;DHT22;20128;45.582;5.298;2024-01-30T02:25:36;10.80;93.30
33827;DHT22;20128;45.582;5.298;2024-01-30T02:28:02;10.80;93.30
33827;DHT22;20128;45.582;5.298;2024-01-30T02:30:28;10.80;93.30
33827;DHT22;20128;45.582;5.298;2024-01-30T02:32:53;10.80;93.30
33827;DHT22;20128;45.582;5.298;2024-01-30T02:38:41;10.80;93.30
33827;DHT22;20128;45.582;5.298;2024-01-30T02:41:07;10.80;93.30
33827;DHT22;20128;45.582;5.298;2024-01-30T02:43:32;10.80;93.20
33827;DHT22;20128;45.582;5.298;2024-01-30T02:45:58;10.80;93.30
33827;DHT22;20128;45.582;5.298;2024-01-30T02:48:26;10.80;93.30
33827;DHT22;20128;45.582;5.298;2024-01-30T02:50:52;10.80;93.40
33827;DHT22;20128;45.582;5.298;2024-01-30T02:53:17;10.80;93.50
33827;DHT22;20128;45.582;5.298;2024-01-30T02:55:43;10.80;93.40
33827;DHT22;20128;45.582;5.298;2024-01-30T02:58:08;10.80;93.50
33827;DHT22;20128;45.582;5.298;2024-01-30T03:00:34;10.80;93.50
33827;DHT22;20128;45.582;5.298;2024-01-30T03:03:00;10.80;93.60
33827;DHT22;20128;45.582;5.298;2024-01-30T03:05:26;10.80;93.70
33827;DHT22;20128;45.582;5.298;2024-01-30T03:07:51;10.80;93.90
33827;DHT22;20128;45.582;5.298;2024-01-30T03:10:17;10.80;93.90
33827;DHT22;20128;45.582;5.298;2024-01-30T03:12:43;10.80;93.90
33827;DHT22;20128;45.582;5.298;2024-01-30T03:15:08;10.80;93.90
33827;DHT22;20128;45.582;5.298;2024-01-30T03:17:35;10.80;93.90
33827;DHT22;20128;45.582;5.298;2024-01-30T03:20:02;10.80;94.00
33827;DHT22;20128;45.582;5.298;2024-01-30T03:22:29;10.80;94.10
33827;DHT22;20128;45.582;5.298;2024-01-30T03:24:54;10.80;94.10
33827;DHT22;20128;45.582;5.298;2024-01-30T03:27:20;10.80;94.10
33827;DHT22;20128;45.582;5.298;2024-01-30T03:29:46;10.80;94.20
33827;DHT22;20128;45.582;5.298;2024-01-30T03:32:11;10.80;94.20
33827;DHT22;20128;45.582;5.298;2024-01-30T03:34:37;10.80;94.20
33827;DHT22;20128;45.582;5.298;2024-01-30T03:37:02;10.80;94.20
33827;DHT22;20128;45.582;5.298;2024-01-30T03:39:28;10.80;94.40
33827;DHT22;20128;45.582;5.298;2024-01-30T03:41:54;10.80;94.30
33827;DHT22;20128;45.582;5.298;2024-01-30T03:44:19;10.80;94.30
33827;DHT22;20128;45.582;5.298;2024-01-30T03:46:46;10.90;94.40
33827;DHT22;20128;45.582;5.298;2024-01-30T03:49:11;10.90;94.30
33827;DHT22;20128;45.582;5.298;2024-01-30T03:51:37;10.90;94.40
33827;DHT22;20128;45.582;5.298;2024-01-30T03:54:02;10.90;94.40
33827;DHT22;20128;45.582;5.298;2024-01-30T03:56:28;10.90;94.40
33827;DHT22;20128;45.582;5.298;2024-01-30T03:58:53;10.90;94.40
33827;DHT22;20128;45.582;5.298;2024-01-30T04:01:19;10.90;94.40
33827;DHT22;20128;45.582;5.298;2024-01-30T04:03:45;10.80;94.40
33827;DHT22;20128;45.582;5.298;2024-01-30T04:06:11;10.90;94.50
33827;DHT22;20128;45.582;5.298;2024-01-30T04:08:37;10.80;94.50
33827;DHT22;20128;45.582;5.298;2024-01-30T04:11:04;10.80;94.50
33827;DHT22;20128;45.582;5.298;2024-01-30T04:13:31;10.80;94.50
33827;DHT22;20128;45.582;5.298;2024-01-30T04:15:58;10.80;94.50
33827;DHT22;20128;45.582;5.298;2024-01-30T04:18:24;10.80;94.50
33827;DHT22;20128;45.582;5.298;2024-01-30T04:20:49;10.80;94.50
33827;DHT22;20128;45.582;5.298;2024-01-30T04:23:15;10.70;94.50
33827;DHT22;20128;45.582;5.298;2024-01-30T04:25:40;10.70;94.50
33827;DHT22;20128;45.582;5.298;2024-01-30T04:28:06;10.70;94.50
33827;DHT22;20128;45.582;5.298;2024-01-30T04:30:31;10.80;94.50
33827;DHT22;20128;45.582;5.298;2024-01-30T04:32:57;10.80;94.50
33827;DHT22;20128;45.582;5.298;2024-01-30T04:35:23;10.80;94.40
33827;DHT22;20128;45.582;5.298;2024-01-30T04:37:51;10.80;94.40
33827;DHT22;20128;45.582;5.298;2024-01-30T04:40:17;10.70;94.40
33827;DHT22;20128;45.582;5.298;2024-01-30T04:42:43;10.70;94.40
33827;DHT22;20128;45.582;5.298;2024-01-30T04:45:08;10.70;94.40
33827;DHT22;20128;45.582;5.298;2024-01-30T04:47:34;10.70;94.30
33827;DHT22;20128;45.582;5.298;2024-01-30T04:50:01;10.60;94.30
33827;DHT22;20128;45.582;5.298;2024-01-30T04:52:27;10.70;94.30
33827;DHT22;20128;45.582;5.298;2024-01-30T04:54:53;10.70;94.30
33827;DHT22;20128;45.582;5.298;2024-01-30T04:57:18;10.60;94.30
33827;DHT22;20128;45.582;5.298;2024-01-30T04:59:44;10.70;94.30
33827;DHT22;20128;45.582;5.298;2024-01-30T05:02:10;10.60;94.20
33827;DHT22;20128;45.582;5.298;2024-01-30T05:04:35;10.60;94.10
33827;DHT22;20128;45.582;5.298;2024-01-30T05:07:01;10.60;94.10
33827;DHT22;20128;45.582;5.298;2024-01-30T05:09:26;10.60;94.20
33827;DHT22;20128;45.582;5.298;2024-01-30T05:11:52;10.60;94.10
33827;DHT22;20128;45.582;5.298;2024-01-30T05:14:18;10.60;94.00
33827;DHT22;20128;45.582;5.298;2024-01-30T05:16:44;10.50;93.90
33827;DHT22;20128;45.582;5.298;2024-01-30T05:19:13;10.50;93.90
33827;DHT22;20128;45.582;5.298;2024-01-30T05:21:39;10.40;93.80
33827;DHT22;20128;45.582;5.298;2024-01-30T05:24:05;10.30;94.00
33827;DHT22;20128;45.582;5.298;2024-01-30T05:26:31;10.30;94.00
33827;DHT22;20128;45.582;5.298;2024-01-30T05:28:57;10.30;93.90
33827;DHT22;20128;45.582;5.298;2024-01-30T05:31:22;10.30;93.90
33827;DHT22;20128;45.582;5.298;2024-01-30T05:33:48;10.30;94.00
33827;DHT22;20128;45.582;5.298;2024-01-30T05:36:14;10.30;94.00
33827;DHT22;20128;45.582;5.298;2024-01-30T05:38:42;10.20;94.00
33827;DHT22;20128;45.582;5.298;2024-01-30T05:41:09;10.20;93.90
33827;DHT22;20128;45.582;5.298;2024-01-30T05:43:35;10.20;93.80
33827;DHT22;20128;45.582;5.298;2024-01-30T05:46:00;10.20;93.80
33827;DHT22;20128;45.582;5.298;2024-01-30T05:48:26;10.20;93.80
33827;DHT22;20128;45.582;5.298;2024-01-30T05:50:51;10.20;93.70
33827;DHT22;20128;45.582;5.298;2024-01-30T05:53:17;10.20;93.80
33827;DHT22;20128;45.582;5.298;2024-01-30T05:55:42;10.10;93.80
33827;DHT22;20128;45.582;5.298;2024-01-30T05:58:08;10.10;93.80
33827;DHT22;20128;45.582;5.298;2024-01-30T06:00:34;10.10;93.80
33827;DHT22;20128;45.582;5.298;2024-01-30T06:02:59;10.10;93.80
33827;DHT22;20128;45.582;5.298;2024-01-30T06:05:25;10.00;93.90
33827;DHT22;20128;45.582;5.298;2024-01-30T06:07:50;10.00;94.10
33827;DHT22;20128;45.582;5.298;2024-01-30T06:10:16;9.90;94.10
33827;DHT22;20128;45.582;5.298;2024-01-30T06:12:42;9.90;94.20
33827;DHT22;20128;45.582;5.298;2024-01-30T06:15:08;9.90;94.20
33827;DHT22;20128;45.582;5.298;2024-01-30T06:17:34;9.90;94.30
33827;DHT22;20128;45.582;5.298;2024-01-30T06:19:59;9.90;94.30
33827;DHT22;20128;45.582;5.298;2024-01-30T06:22:25;9.90;94.20
33827;DHT22;20128;45.582;5.298;2024-01-30T06:24:50;9.90;94.10
33827;DHT22;20128;45.582;5.298;2024-01-30T06:27:16;9.90;94.00
33827;DHT22;20128;45.582;5.298;2024-01-30T06:29:43;9.90;94.00
33827;DHT22;20128;45.582;5.298;2024-01-30T06:32:09;10.00;94.00
33827;DHT22;20128;45.582;5.298;2024-01-30T06:34:34;9.90;94.00
33827;DHT22;20128;45.582;5.298;2024-01-30T06:37:00;9.90;94.10
33827;DHT22;20128;45.582;5.298;2024-01-30T06:39:26;9.80;94.20
33827;DHT22;20128;45.582;5.298;2024-01-30T06:41:52;9.80;94.20
33827;DHT22;20128;45.582;5.298;2024-01-30T06:44:18;9.70;94.20
33827;DHT22;20128;45.582;5.298;2024-01-30T06:46:43;9.80;94.20
33827;DHT22;20128;45.582;5.298;2024-01-30T06:49:09;9.80;94.20
33827;DHT22;20128;45.582;5.298;2024-01-30T06:51:34;9.70;94.20
33827;DHT22;20128;45.582;5.298;2024-01-30T06:54:00;9.70;94.20
33827;DHT22;20128;45.582;5.298;2024-01-30T06:56:26;9.60;94.30
33827;DHT22;20128;45.582;5.298;2024-01-30T06:58:51;9.60;94.30
33827;DHT22;20128;45.582;5.298;2024-01-30T07:01:17;9.50;94.30
33827;DHT22;20128;45.582;5.298;2024-01-30T07:03:43;9.50;94.30
33827;DHT22;20128;45.582;5.298;2024-01-30T07:06:09;9.50;94.30
33827;DHT22;20128;45.582;5.298;2024-01-30T07:08:38;9.50;94.30
33827;DHT22;20128;45.582;5.298;2024-01-30T07:11:05;9.40;94.30
33827;DHT22;20128;45.582;5.298;2024-01-30T07:13:31;9.40;94.40
33827;DHT22;20128;45.582;5.298;2024-01-30T07:15:57;9.30;94.50
33827;DHT22;20128;45.582;5.298;2024-01-30T07:18:23;9.30;94.50
33827;DHT22;20128;45.582;5.298;2024-01-30T07:20:48;9.30;94.60
33827;DHT22;20128;45.582;5.298;2024-01-30T07:23:15;9.40;94.60
33827;DHT22;20128;45.582;5.298;2024-01-30T07:25:45;9.30;94.60
33827;DHT22;20128;45.582;5.298;2024-01-30T07:28:11;9.40;94.70
33827;DHT22;20128;45.582;5.298;2024-01-30T07:30:42;9.30;94.80
33827;DHT22;20128;45.582;5.298;2024-01-30T07:33:08;9.30;94.70
33827;DHT22;20128;45.582;5.298;2024-01-30T07:35:34;9.30;94.80
33827;DHT22;20128;45.582;5.298;2024-01-30T07:38:00;9.30;94.90
33827;DHT22;20128;45.582;5.298;2024-01-30T07:40:25;9.30;95.00
33827;DHT22;20128;45.582;5.298;2024-01-30T07:42:52;9.30;95.00
33827;DHT22;20128;45.582;5.298;2024-01-30T07:45:18;9.30;95.00
33827;DHT22;20128;45.582;5.298;2024-01-30T07:47:50;9.30;95.00
33827;DHT22;20128;45.582;5.298;2024-01-30T07:50:17;9.30;95.00
33827;DHT22;20128;45.582;5.298;2024-01-30T07:52:43;9.40;95.10
33827;DHT22;20128;45.582;5.298;2024-01-30T07:55:09;9.40;95.00
33827;DHT22;20128;45.582;5.298;2024-01-30T07:57:35;9.50;95.10
33827;DHT22;20128;45.582;5.298;2024-01-30T08:00:01;9.50;95.00
33827;DHT22;20128;45.582;5.298;2024-01-30T08:02:26;9.60;95.00
33827;DHT22;20128;45.582;5.298;2024-01-30T08:04:52;9.50;94.90
33827;DHT22;20128;45.582;5.298;2024-01-30T08:07:18;9.50;94.90
33827;DHT22;20128;45.582;5.298;2024-01-30T08:09:43;9.60;94.90
33827;DHT22;20128;45.582;5.298;2024-01-30T08:12:09;9.60;94.90
33827;DHT22;20128;45.582;5.298;2024-01-30T08:14:35;9.70;95.00
33827;DHT22;20128;45.582;5.298;2024-01-30T08:17:03;9.70;94.90
33827;DHT22;20128;45.582;5.298;2024-01-30T08:19:29;9.70;94.80
33827;DHT22;20128;45.582;5.298;2024-01-30T08:21:54;9.70;94.80
33827;DHT22;20128;45.582;5.298;2024-01-30T08:24:21;9.70;94.90
33827;DHT22;20128;45.582;5.298;2024-01-30T08:26:46;9.70;94.90
33827;DHT22;20128;45.582;5.298;2024-01-30T08:29:12;9.70;94.90
33827;DHT22;20128;45.582;5.298;2024-01-30T08:31:37;9.70;94.90
33827;DHT22;20128;45.582;5.298;2024-01-30T08:34:03;9.70;94.90
33827;DHT22;20128;45.582;5.298;2024-01-30T08:36:29;9.80;94.90
33827;DHT22;20128;45.582;5.298;2024-01-30T08:38:54;9.80;94.90
33827;DHT22;20128;45.582;5.298;2024-01-30T08:41:20;9.90;94.90
33827;DHT22;20128;45.582;5.298;2024-01-30T08:43:45;9.90;94.90
33827;DHT22;20128;45.582;5.298;2024-01-30T08:46:11;10.00;94.90
33827;DHT22;20128;45.582;5.298;2024-01-30T08:48:37;10.10;95.00
33827;DHT22;20128;45.582;5.298;2024-01-30T08:51:03;10.10;95.00
33827;DHT22;20128;45.582;5.298;2024-01-30T08:53:28;10.20;95.00
33827;DHT22;20128;45.582;5.298;2024-01-30T08:55:54;10.20;95.00
33827;DHT22;20128;45.582;5.298;2024-01-30T08:58:19;10.30;95.10
33827;DHT22;20128;45.582;5.298;2024-01-30T09:00:45;10.40;95.20
33827;DHT22;20128;45.582;5.298;2024-01-30T09:03:11;10.50;95.10
33827;DHT22;20128;45.582;5.298;2024-01-30T09:05:36;10.50;95.00
33827;DHT22;20128;45.582;5.298;2024-01-30T09:08:02;10.60;95.00
33827;DHT22;20128;45.582;5.298;2024-01-30T09:10:28;10.70;94.90
33827;DHT22;20128;45.582;5.298;2024-01-30T09:12:53;10.80;94.50
33827;DHT22;20128;45.582;5.298;2024-01-30T09:15:19;10.90;94.50
33827;DHT22;20128;45.582;5.298;2024-01-30T09:17:44;11.00;94.30
33827;DHT22;20128;45.582;5.298;2024-01-30T09:20:10;11.20;94.10
33827;DHT22;20128;45.582;5.298;2024-01-30T09:22:37;11.30;94.10
33827;DHT22;20128;45.582;5.298;2024-01-30T09:25:02;11.50;93.90
33827;DHT22;20128;45.582;5.298;2024-01-30T09:27:28;11.60;93.40
33827;DHT22;20128;45.582;5.298;2024-01-30T09:29:54;11.80;93.40
33827;DHT22;20128;45.582;5.298;2024-01-30T09:32:19;12.00;92.80
33827;DHT22;20128;45.582;5.298;2024-01-30T09:34:45;12.10;92.90
33827;DHT22;20128;45.582;5.298;2024-01-30T09:37:11;12.20;92.60
33827;DHT22;20128;45.582;5.298;2024-01-30T09:39:37;12.30;92.10
33827;DHT22;20128;45.582;5.298;2024-01-30T09:42:11;12.30;91.60
33827;DHT22;20128;45.582;5.298;2024-01-30T09:44:43;12.30;91.40
33827;DHT22;20128;45.582;5.298;2024-01-30T09:47:10;12.30;91.40
33827;DHT22;20128;45.582;5.298;2024-01-30T09:49:36;12.30;91.10
33827;DHT22;20128;45.582;5.298;2024-01-30T09:52:04;12.30;91.30
33827;DHT22;20128;45.582;5.298;2024-01-30T09:54:30;12.30;91.10
33827;DHT22;20128;45.582;5.298;2024-01-30T09:56:57;12.40;91.20
33827;DHT22;20128;45.582;5.298;2024-01-30T09:59:26;12.40;91.10
33827;DHT22;20128;45.582;5.298;2024-01-30T10:01:53;12.40;91.10
33827;DHT22;20128;45.582;5.298;2024-01-30T10:04:19;12.50;91.30
33827;DHT22;20128;45.582;5.298;2024-01-30T10:06:44;12.50;90.50
33827;DHT22;20128;45.582;5.298;2024-01-30T10:09:10;12.50;90.60
33827;DHT22;20128;45.582;5.298;2024-01-30T10:11:36;12.60;90.60
33827;DHT22;20128;45.582;5.298;2024-01-30T10:14:02;12.50;90.60
33827;DHT22;20128;45.582;5.298;2024-01-30T10:16:28;12.50;90.80
33827;DHT22;20128;45.582;5.298;2024-01-30T10:18:54;12.60;90.70
33827;DHT22;20128;45.582;5.298;2024-01-30T10:21:21;12.60;90.70
33827;DHT22;20128;45.582;5.298;2024-01-30T10:23:46;12.60;90.40
33827;DHT22;20128;45.582;5.298;2024-01-30T10:26:12;12.70;90.60
33827;DHT22;20128;45.582;5.298;2024-01-30T10:28:38;12.70;90.50
33827;DHT22;20128;45.582;5.298;2024-01-30T10:31:05;12.70;90.40
33827;DHT22;20128;45.582;5.298;2024-01-30T10:33:31;12.80;90.50
33827;DHT22;20128;45.582;5.298;2024-01-30T10:36:03;12.90;90.10
33827;DHT22;20128;45.582;5.298;2024-01-30T10:38:30;13.00;90.20
33827;DHT22;20128;45.582;5.298;2024-01-30T10:41:00;13.10;90.30
33827;DHT22;20128;45.582;5.298;2024-01-30T10:43:35;13.20;90.00
33827;DHT22;20128;45.582;5.298;2024-01-30T10:46:19;13.30;88.30
33827;DHT22;20128;45.582;5.298;2024-01-30T10:48:51;13.40;88.80
33827;DHT22;20128;45.582;5.298;2024-01-30T10:51:22;13.50;87.20
33827;DHT22;20128;45.582;5.298;2024-01-30T10:53:49;13.60;87.10
33827;DHT22;20128;45.582;5.298;2024-01-30T10:56:16;13.70;86.50
33827;DHT22;20128;45.582;5.298;2024-01-30T10:58:42;13.70;85.80
33827;DHT22;20128;45.582;5.298;2024-01-30T11:01:09;13.70;85.00
33827;DHT22;20128;45.582;5.298;2024-01-30T11:03:35;13.70;85.30
33827;DHT22;20128;45.582;5.298;2024-01-30T11:06:02;13.80;85.30
33827;DHT22;20128;45.582;5.298;2024-01-30T11:08:31;13.90;84.70
33827;DHT22;20128;45.582;5.298;2024-01-30T11:10:58;13.90;83.60
33827;DHT22;20128;45.582;5.298;2024-01-30T11:13:29;13.90;84.20
33827;DHT22;20128;45.582;5.298;2024-01-30T11:15:55;13.90;83.80
33827;DHT22;20128;45.582;5.298;2024-01-30T11:18:31;13.80;83.50
33827;DHT22;20128;45.582;5.298;2024-01-30T11:21:00;13.80;83.70
33827;DHT22;20128;45.582;5.298;2024-01-30T11:23:30;13.70;83.90
33827;DHT22;20128;45.582;5.298;2024-01-30T11:25:56;13.70;84.10
33827;DHT22;20128;45.582;5.298;2024-01-30T11:28:23;13.70;84.10
33827;DHT22;20128;45.582;5.298;2024-01-30T11:30:49;13.80;84.30
33827;DHT22;20128;45.582;5.298;2024-01-30T11:33:28;14.00;83.70
33827;DHT22;20128;45.582;5.298;2024-01-30T11:35:58;14.10;82.80
33827;DHT22;20128;45.582;5.298;2024-01-30T11:38:32;14.10;82.40
33827;DHT22;20128;45.582;5.298;2024-01-30T11:40:58;14.10;82.30
33827;DHT22;20128;45.582;5.298;2024-01-30T11:43:24;14.00;82.00
33827;DHT22;20128;45.582;5.298;2024-01-30T11:45:50;14.10;82.50
33827;DHT22;20128;45.582;5.298;2024-01-30T11:48:17;14.10;82.80
33827;DHT22;20128;45.582;5.298;2024-01-30T11:50:43;14.10;82.80
33827;DHT22;20128;45.582;5.298;2024-01-30T11:53:10;14.20;83.10
33827;DHT22;20128;45.582;5.298;2024-01-30T11:55:36;14.30;82.60
33827;DHT22;20128;45.582;5.298;2024-01-30T11:58:03;14.30;81.50
33827;DHT22;20128;45.582;5.298;2024-01-30T12:00:29;14.40;82.20
33827;DHT22;20128;45.582;5.298;2024-01-30T12:02:59;14.40;81.60
33827;DHT22;20128;45.582;5.298;2024-01-30T12:05:26;14.40;81.60
33827;DHT22;20128;45.582;5.298;2024-01-30T12:07:52;14.50;81.60
33827;DHT22;20128;45.582;5.298;2024-01-30T12:10:18;14.50;80.90
33827;DHT22;20128;45.582;5.298;2024-01-30T12:12:49;14.50;80.30
33827;DHT22;20128;45.582;5.298;2024-01-30T12:15:15;14.60;80.20
33827;DHT22;20128;45.582;5.298;2024-01-30T12:17:41;14.60;79.10
33827;DHT22;20128;45.582;5.298;2024-01-30T12:20:14;14.50;78.50
33827;DHT22;20128;45.582;5.298;2024-01-30T12:22:48;14.50;78.60
33827;DHT22;20128;45.582;5.298;2024-01-30T12:25:15;14.60;78.60
33827;DHT22;20128;45.582;5.298;2024-01-30T12:27:48;14.60;78.20
33827;DHT22;20128;45.582;5.298;2024-01-30T12:30:19;14.60;78.00
33827;DHT22;20128;45.582;5.298;2024-01-30T12:32:46;14.60;77.20
33827;DHT22;20128;45.582;5.298;2024-01-30T12:35:15;14.60;77.40
33827;DHT22;20128;45.582;5.298;2024-01-30T12:37:43;14.60;77.70
33827;DHT22;20128;45.582;5.298;2024-01-30T12:40:09;14.70;77.60
33827;DHT22;20128;45.582;5.298;2024-01-30T12:42:36;14.70;75.80
33827;DHT22;20128;45.582;5.298;2024-01-30T12:45:03;14.80;76.60
33827;DHT22;20128;45.582;5.298;2024-01-30T12:47:29;14.80;75.40
33827;DHT22;20128;45.582;5.298;2024-01-30T12:49:55;14.80;75.60
33827;DHT22;20128;45.582;5.298;2024-01-30T12:52:21;14.80;74.90
33827;DHT22;20128;45.582;5.298;2024-01-30T12:54:48;14.80;75.40
33827;DHT22;20128;45.582;5.298;2024-01-30T12:57:14;14.80;74.20
33827;DHT22;20128;45.582;5.298;2024-01-30T12:59:40;14.90;73.60
33827;DHT22;20128;45.582;5.298;2024-01-30T13:02:05;14.80;74.10
33827;DHT22;20128;45.582;5.298;2024-01-30T13:04:32;14.80;74.00
33827;DHT22;20128;45.582;5.298;2024-01-30T13:06:58;14.90;74.20
33827;DHT22;20128;45.582;5.298;2024-01-30T13:09:25;14.90;73.70
33827;DHT22;20128;45.582;5.298;2024-01-30T13:11:51;14.90;74.00
33827;DHT22;20128;45.582;5.298;2024-01-30T13:14:17;14.90;74.40
33827;DHT22;20128;45.582;5.298;2024-01-30T13:16:43;14.90;74.10
33827;DHT22;20128;45.582;5.298;2024-01-30T13:19:09;15.00;73.40
33827;DHT22;20128;45.582;5.298;2024-01-30T13:21:34;15.00;72.60
33827;DHT22;20128;45.582;5.298;2024-01-30T13:24:00;14.90;72.60
33827;DHT22;20128;45.582;5.298;2024-01-30T13:26:26;15.00;72.60
33827;DHT22;20128;45.582;5.298;2024-01-30T13:28:51;15.10;71.20
33827;DHT22;20128;45.582;5.298;2024-01-30T13:31:17;15.10;70.80
33827;DHT22;20128;45.582;5.298;2024-01-30T13:33:43;15.10;70.00
33827;DHT22;20128;45.582;5.298;2024-01-30T13:36:10;15.10;69.00
33827;DHT22;20128;45.582;5.298;2024-01-30T13:38:36;15.10;69.10
33827;DHT22;20128;45.582;5.298;2024-01-30T13:41:02;15.20;69.00
33827;DHT22;20128;45.582;5.298;2024-01-30T13:43:28;15.20;68.50
33827;DHT22;20128;45.582;5.298;2024-01-30T13:45:54;15.20;68.50
33827;DHT22;20128;45.582;5.298;2024-01-30T13:48:19;15.20;68.50
33827;DHT22;20128;45.582;5.298;2024-01-30T13:50:45;15.20;68.00
33827;DHT22;20128;45.582;5.298;2024-01-30T13:53:11;15.20;68.30
33827;DHT22;20128;45.582;5.298;2024-01-30T13:55:37;15.30;68.10
33827;DHT22;20128;45.582;5.298;2024-01-30T13:58:05;15.30;67.40
33827;DHT22;20128;45.582;5.298;2024-01-30T14:00:30;15.30;67.40
33827;DHT22;20128;45.582;5.298;2024-01-30T14:02:56;15.40;68.20
33827;DHT22;20128;45.582;5.298;2024-01-30T14:05:23;15.40;68.10
33827;DHT22;20128;45.582;5.298;2024-01-30T14:07:50;15.40;68.00
33827;DHT22;20128;45.582;5.298;2024-01-30T14:10:16;15.50;68.40
33827;DHT22;20128;45.582;5.298;2024-01-30T14:12:42;15.50;68.40
33827;DHT22;20128;45.582;5.298;2024-01-30T14:15:09;15.50;67.50
33827;DHT22;20128;45.582;5.298;2024-01-30T14:17:35;15.50;67.70
33827;DHT22;20128;45.582;5.298;2024-01-30T14:20:02;15.40;67.20
33827;DHT22;20128;45.582;5.298;2024-01-30T14:22:29;15.30;67.30
33827;DHT22;20128;45.582;5.298;2024-01-30T14:24:55;15.20;67.40
33827;DHT22;20128;45.582;5.298;2024-01-30T14:27:21;15.20;67.10
33827;DHT22;20128;45.582;5.298;2024-01-30T14:29:47;15.10;67.10
33827;DHT22;20128;45.582;5.298;2024-01-30T14:32:13;15.10;67.00
33827;DHT22;20128;45.582;5.298;2024-01-30T14:34:38;15.00;67.60
33827;DHT22;20128;45.582;5.298;2024-01-30T14:37:04;15.00;67.50
33827;DHT22;20128;45.582;5.298;2024-01-30T14:39:30;15.00;67.90
33827;DHT22;20128;45.582;5.298;2024-01-30T14:41:56;15.00;67.60
33827;DHT22;20128;45.582;5.298;2024-01-30T14:44:21;14.90;67.80
33827;DHT22;20128;45.582;5.298;2024-01-30T14:46:48;14.90;67.50
33827;DHT22;20128;45.582;5.298;2024-01-30T14:49:14;14.90;68.00
33827;DHT22;20128;45.582;5.298;2024-01-30T14:51:41;14.90;67.60
33827;DHT22;20128;45.582;5.298;2024-01-30T14:54:07;14.90;68.20
33827;DHT22;20128;45.582;5.298;2024-01-30T14:56:32;14.90;67.90
33827;DHT22;20128;45.582;5.298;2024-01-30T14:58:58;14.90;68.20
33827;DHT22;20128;45.582;5.298;2024-01-30T15:01:24;14.90;67.70
33827;DHT22;20128;45.582;5.298;2024-01-30T15:03:50;14.90;67.60
33827;DHT22;20128;45.582;5.298;2024-01-30T15:06:18;14.90;67.50
33827;DHT22;20128;45.582;5.298;2024-01-30T15:08:44;14.90;68.00
33827;DHT22;20128;45.582;5.298;2024-01-30T15:11:10;14.90;68.50
33827;DHT22;20128;45.582;5.298;2024-01-30T15:13:36;14.90;68.40
33827;DHT22;20128;45.582;5.298;2024-01-30T15:16:02;14.90;68.80
33827;DHT22;20128;45.582;5.298;2024-01-30T15:18:30;14.90;68.90
33827;DHT22;20128;45.582;5.298;2024-01-30T15:20:56;14.80;69.10
33827;DHT22;20128;45.582;5.298;2024-01-30T15:23:22;14.80;69.40
33827;DHT22;20128;45.582;5.298;2024-01-30T15:25:48;14.80;69.10
33827;DHT22;20128;45.582;5.298;2024-01-30T15:28:13;14.80;69.30
33827;DHT22;20128;45.582;5.298;2024-01-30T15:30:40;14.80;69.50